map of MNL home
Great Circle Mapper logo
MNL - Airport
Location
City:  Manila, Philippines
Name:Ninoy Aquino International Airport
ICAO / IATA:RPLL / MNL

Details
Type:Airport (Aerodrome, Airfield)
Use:Public/Civil, Military, International (customs port of entry)
Latitude:1430'31"N (14.508647)
Longitude:12101'10"E (121.019581)
Datum:WGS 1984
Elevation:75 ft (23 m)
Runways:2
Longest:12261 × 197 ft (3737 × 60 m), paved

Time
Time Zone:UTC+8
Local Time:

Weather
METAR:RPLL 161800Z 12004KT 040V180 9999 SCT023 SCT100 27/21 Q1009 NOSIG RMK A2980

Related Locations
Nearby:
Farthest:SWYM: 12418 mi / 19985 km
Pontes e Lacerda [Fazenda Anhanguera], MT, BR

Find:

   beyond  
but within

Other Information
Maps:
NOTAMs:
Links:
Sources:

  
flag of Philippines   

Airport Diagram

Airport diagram for MNL

Airport diagram (OBSOLETE) from NGA

Sectional Chart

Flight Planning
at skyvector.com

Satellite Image

Google Maps Satellite View

 

Copyright © 2004-2014 Karl L. Swartz. All rights reserved.
The Great Circle Mapper name and logo are trademarks of the Great Circle Mapper.
All other trademarks mentioned herein belong to their respective owners.
Please see credits for attibutions and further copyright information.

  Follow gcmap on Facebook Follow gcmap on Twitter

hCard Microformat

Geo Microformat